Time;durP1;ratioP1;P1;durP2;ratioP2;P2;SDS_P1;SDS_P2;PMS_P1;PMS_P2;Temp;Humidity;BMP_temperature;BMP_pressure;BME280_temperature;BME280_humidity;BME280_pressure;Samples;Min_cycle;Max_cycle;Signal;HPM_P1;HPM_P2
2024/01/17 00:00:40;;;;;;;12.27;5.93;;;-6.30;99.90;;;;;;5055832;28;20420;-47
2024/01/17 00:03:06;;;;;;;12.57;6.80;;;-6.40;99.90;;;;;;5055734;28;20413;-48
2024/01/17 00:05:32;;;;;;;12.07;7.13;;;-6.30;99.90;;;;;;5055969;28;20243;-46
2024/01/17 00:07:58;;;;;;;13.80;6.77;;;-6.40;99.90;;;;;;5054726;28;20784;-47
2024/01/17 00:10:25;;;;;;;11.23;6.03;;;-6.40;99.90;;;;;;5055670;28;20398;-47
2024/01/17 00:12:54;;;;;;;18.33;7.13;;;-6.40;99.90;;;;;;5055649;28;20178;-47
2024/01/17 00:15:20;;;;;;;10.33;6.60;;;-6.40;99.90;;;;;;5055829;28;20445;-47
2024/01/17 00:17:49;;;;;;;12.63;6.73;;;-6.40;99.90;;;;;;5055815;28;20428;-47
2024/01/17 00:20:15;;;;;;;16.07;7.53;;;-6.40;99.90;;;;;;5055725;28;20190;-46
2024/01/17 00:22:41;;;;;;;10.97;6.57;;;-6.40;99.90;;;;;;5055566;28;20547;-47
2024/01/17 00:25:08;;;;;;;12.23;5.63;;;-6.40;99.90;;;;;;5055312;28;20217;-48
2024/01/17 00:27:37;;;;;;;12.37;5.90;;;-6.40;99.90;;;;;;5055652;28;20178;-47
2024/01/17 00:30:06;;;;;;;15.83;6.37;;;-6.40;99.90;;;;;;5055865;28;20464;-47
2024/01/17 00:32:32;;;;;;;13.57;7.10;;;-6.40;99.90;;;;;;5055146;28;20505;-47
2024/01/17 00:34:57;;;;;;;14.07;7.27;;;-6.50;99.90;;;;;;5055086;28;20463;-47
2024/01/17 00:37:23;;;;;;;12.90;6.40;;;-6.60;99.90;;;;;;5055888;28;20641;-48
2024/01/17 00:39:52;;;;;;;12.63;6.47;;;-6.50;99.90;;;;;;5056768;28;20657;-48
2024/01/17 00:42:17;;;;;;;11.67;6.57;;;-6.50;99.90;;;;;;5057042;28;20238;-49
2024/01/17 00:44:43;;;;;;;11.03;6.90;;;-6.40;99.90;;;;;;5055103;28;20406;-47
2024/01/17 00:47:09;;;;;;;15.80;6.80;;;-6.40;99.90;;;;;;5055331;28;20222;-47
2024/01/17 00:49:39;;;;;;;13.17;6.97;;;-6.30;99.90;;;;;;5055108;28;20405;-47
2024/01/17 00:52:06;;;;;;;11.07;6.57;;;-6.20;99.90;;;;;;5053812;28;20598;-47
2024/01/17 00:54:40;;;;;;;15.37;7.27;;;-6.20;99.90;;;;;;5055121;28;20411;-47
2024/01/17 00:57:06;;;;;;;12.90;6.77;;;-6.20;99.90;;;;;;5054807;28;20509;-47
2024/01/17 00:59:32;;;;;;;9.40;6.00;;;-6.20;99.90;;;;;;5054933;28;20442;-47
2024/01/17 01:01:57;;;;;;;12.63;6.63;;;-6.20;99.90;;;;;;5054970;28;20182;-47
2024/01/17 01:04:23;;;;;;;12.47;6.63;;;-6.20;99.90;;;;;;5054653;28;20182;-46
2024/01/17 01:06:48;;;;;;;13.93;7.13;;;-6.10;99.90;;;;;;5054805;28;20295;-47
2024/01/17 01:09:15;;;;;;;11.50;6.80;;;-6.10;99.90;;;;;;5054757;28;20318;-47
2024/01/17 01:11:41;;;;;;;13.40;7.33;;;-6.00;99.90;;;;;;5054463;28;20328;-47
2024/01/17 01:14:06;;;;;;;10.00;6.03;;;-6.00;99.90;;;;;;5055130;28;20441;-47
2024/01/17 01:16:32;;;;;;;12.83;6.67;;;-6.00;99.90;;;;;;5054638;28;20209;-47
2024/01/17 01:18:58;;;;;;;11.93;5.90;;;-6.00;99.90;;;;;;5054590;28;20177;-47
2024/01/17 01:21:27;;;;;;;11.53;7.13;;;-6.00;99.90;;;;;;5055019;28;20634;-47
2024/01/17 01:23:53;;;;;;;16.73;7.43;;;-5.90;99.90;;;;;;5055051;28;20178;-47
2024/01/17 01:26:19;;;;;;;18.40;7.77;;;-5.90;99.90;;;;;;5063694;28;20463;-47
2024/01/17 01:28:45;;;;;;;17.97;8.47;;;-5.90;99.90;;;;;;5079616;28;20413;-47
2024/01/17 01:31:10;;;;;;;16.10;7.90;;;-5.90;99.90;;;;;;5058988;28;20190;-47
2024/01/17 01:33:36;;;;;;;13.33;7.10;;;-5.90;99.90;;;;;;5054502;28;20669;-46
2024/01/17 01:36:01;;;;;;;13.47;6.87;;;-5.80;99.90;;;;;;5053706;28;20610;-47
2024/01/17 01:38:27;;;;;;;12.27;6.80;;;-5.80;99.90;;;;;;5052570;28;20183;-48
2024/01/17 01:40:53;;;;;;;17.20;7.07;;;-5.80;99.90;;;;;;5051968;28;20272;-46
2024/01/17 01:43:23;;;;;;;12.13;5.93;;;-5.90;99.90;;;;;;5053220;28;20183;-46
2024/01/17 01:46:04;;;;;;;8.40;5.80;;;-5.80;99.90;;;;;;5053205;28;20236;-49
2024/01/17 01:48:33;;;;;;;12.40;6.17;;;-5.80;99.90;;;;;;5053297;28;20420;-46
2024/01/17 01:51:00;;;;;;;11.40;6.33;;;-5.80;99.90;;;;;;5053313;28;20431;-48
2024/01/17 01:53:28;;;;;;;9.53;6.03;;;-5.80;99.90;;;;;;5052230;28;20436;-48
2024/01/17 01:55:54;;;;;;;12.67;6.30;;;-5.80;99.90;;;;;;5052767;28;20455;-47
2024/01/17 01:58:28;;;;;;;12.90;6.80;;;-5.90;99.90;;;;;;5051567;28;20770;-47
2024/01/17 02:00:55;;;;;;;11.57;6.23;;;-5.90;99.90;;;;;;5052063;28;20472;-48
2024/01/17 02:03:23;;;;;;;11.20;6.40;;;-5.90;99.90;;;;;;5052865;28;20765;-47
2024/01/17 02:05:55;;;;;;;10.63;6.03;;;-5.80;99.90;;;;;;5052744;28;20878;-48
2024/01/17 02:08:23;;;;;;;10.87;6.03;;;-5.80;99.90;;;;;;5053110;28;20884;-48
2024/01/17 02:10:49;;;;;;;12.43;6.17;;;-5.80;99.90;;;;;;5052771;28;20411;-48
2024/01/17 02:13:18;;;;;;;13.07;6.60;;;-5.80;99.90;;;;;;5052979;28;20508;-49
2024/01/17 02:15:46;;;;;;;16.77;7.27;;;-5.80;99.90;;;;;;5051582;28;20449;-47
2024/01/17 02:18:12;;;;;;;9.10;5.97;;;-5.80;99.90;;;;;;5052632;28;21013;-49
2024/01/17 02:20:38;;;;;;;9.27;5.47;;;-5.90;99.90;;;;;;5052558;28;20455;-48
2024/01/17 02:23:29;;;;;;;11.23;6.20;;;-5.90;99.90;;;;;;5052884;28;20194;-48
2024/01/17 02:25:58;;;;;;;14.00;6.23;;;-5.90;99.90;;;;;;5052574;28;20544;-47
2024/01/17 02:28:30;;;;;;;9.43;5.97;;;-5.90;99.90;;;;;;5052907;28;20961;-48
2024/01/17 02:30:56;;;;;;;12.13;6.30;;;-5.90;99.90;;;;;;5051446;28;20434;-48
2024/01/17 02:33:22;;;;;;;11.20;6.57;;;-5.90;99.90;;;;;;5052294;28;20456;-47
2024/01/17 02:35:48;;;;;;;15.05;6.78;;;-5.80;99.90;;;;;;5015905;28;1061650;-47
2024/01/17 02:38:14;;;;;;;11.03;6.17;;;-5.80;99.90;;;;;;5053128;28;20646;-47
2024/01/17 02:40:39;;;;;;;14.07;6.43;;;-5.80;99.90;;;;;;5053468;28;20182;-47
2024/01/17 02:43:08;;;;;;;12.83;5.43;;;-5.80;99.90;;;;;;5053214;28;20269;-47
2024/01/17 02:45:34;;;;;;;8.40;5.20;;;-5.70;99.90;;;;;;5056019;28;20213;-48
2024/01/17 02:48:00;;;;;;;11.30;6.40;;;-5.70;99.90;;;;;;5057133;28;20478;-48
2024/01/17 02:50:26;;;;;;;10.03;5.60;;;-5.60;99.90;;;;;;5056076;28;20538;-48
2024/01/17 02:52:52;;;;;;;16.77;6.80;;;-5.60;99.90;;;;;;5056143;28;20578;-48
2024/01/17 02:55:23;;;;;;;21.53;5.93;;;-5.60;99.90;;;;;;5057253;28;20567;-49
2024/01/17 02:57:50;;;;;;;14.23;6.73;;;-5.60;99.90;;;;;;5055414;28;20204;-46
2024/01/17 03:00:17;;;;;;;11.70;6.40;;;-5.60;99.90;;;;;;5057006;28;20877;-46
2024/01/17 03:02:42;;;;;;;12.63;6.43;;;-5.60;99.90;;;;;;5056475;28;20784;-46
2024/01/17 03:05:13;;;;;;;12.20;6.90;;;-5.60;99.90;;;;;;5056750;28;20447;-48
2024/01/17 03:07:42;;;;;;;15.20;6.10;;;-5.60;99.90;;;;;;5056914;28;20163;-47
2024/01/17 03:10:12;;;;;;;14.07;6.53;;;-5.60;99.90;;;;;;5057249;28;20409;-48
2024/01/17 03:12:40;;;;;;;14.73;6.50;;;-5.70;99.90;;;;;;5056664;28;20465;-48
2024/01/17 03:15:07;;;;;;;11.83;5.70;;;-5.70;99.90;;;;;;5056476;28;20422;-47
2024/01/17 03:17:38;;;;;;;13.40;6.47;;;-5.70;99.90;;;;;;5038898;28;20424;-47
2024/01/17 03:20:05;;;;;;;10.57;5.83;;;-5.70;99.90;;;;;;5056894;28;20854;-47
2024/01/17 03:22:35;;;;;;;11.97;6.93;;;-5.60;99.90;;;;;;5057358;28;20409;-48
2024/01/17 03:25:00;;;;;;;12.57;5.83;;;-5.50;99.90;;;;;;5056437;28;20408;-47
2024/01/17 03:27:29;;;;;;;10.33;5.90;;;-5.50;99.90;;;;;;5056573;28;20456;-47
2024/01/17 03:29:55;;;;;;;12.50;6.13;;;-5.50;99.90;;;;;;5056779;28;20181;-46
2024/01/17 03:32:22;;;;;;;12.10;6.20;;;-5.40;99.90;;;;;;5055511;28;20456;-46
2024/01/17 03:34:57;;;;;;;13.63;6.60;;;-5.40;99.90;;;;;;5056201;28;20432;-46
2024/01/17 03:37:31;;;;;;;11.47;6.77;;;-5.40;99.90;;;;;;5056779;28;20403;-47
2024/01/17 03:39:57;;;;;;;11.83;6.03;;;-5.40;99.90;;;;;;5056566;28;20419;-46
2024/01/17 03:42:23;;;;;;;12.53;6.47;;;-5.40;99.90;;;;;;5056147;28;20417;-48
2024/01/17 03:44:54;;;;;;;10.90;5.63;;;-5.30;99.90;;;;;;5054985;28;20186;-48
2024/01/17 03:47:24;;;;;;;8.80;4.33;;;-5.30;99.90;;;;;;5055840;28;20277;-48
2024/01/17 03:49:49;;;;;;;14.37;5.93;;;-5.30;99.90;;;;;;5056184;28;20413;-47
2024/01/17 03:52:16;;;;;;;13.43;6.10;;;-5.20;99.90;;;;;;5056047;28;20417;-47
2024/01/17 03:54:42;;;;;;;11.77;6.00;;;-5.20;99.90;;;;;;5038518;28;20179;-48
2024/01/17 03:57:08;;;;;;;6.33;3.13;;;-5.20;99.90;;;;;;5054783;28;20453;-48
2024/01/17 03:59:34;;;;;;;10.20;6.27;;;-5.20;99.90;;;;;;5056633;28;20178;-47
2024/01/17 04:02:00;;;;;;;12.13;6.00;;;-5.10;99.90;;;;;;5056762;28;20422;-48
2024/01/17 04:04:31;;;;;;;10.47;4.97;;;-5.10;99.90;;;;;;5056459;28;20186;-48
2024/01/17 04:06:57;;;;;;;12.93;6.70;;;-5.10;99.90;;;;;;5074561;28;20249;-48
2024/01/17 04:09:23;;;;;;;14.63;7.23;;;-5.10;99.90;;;;;;5070138;28;20819;-45
2024/01/17 04:11:48;;;;;;;13.20;6.50;;;-5.10;99.90;;;;;;5054751;28;20273;-47
2024/01/17 04:14:20;;;;;;;15.37;7.37;;;-5.00;99.90;;;;;;5055547;28;20184;-48
2024/01/17 04:16:47;;;;;;;16.07;7.53;;;-5.00;99.90;;;;;;5055580;28;20209;-48
2024/01/17 04:19:13;;;;;;;18.53;7.33;;;-5.00;99.90;;;;;;5055431;28;20423;-46
2024/01/17 04:21:39;;;;;;;10.43;6.40;;;-5.00;99.90;;;;;;5055346;28;20436;-47
2024/01/17 04:24:08;;;;;;;12.90;7.50;;;-5.00;99.90;;;;;;5055616;28;20417;-46
2024/01/17 04:26:34;;;;;;;12.63;6.40;;;-5.00;99.90;;;;;;5055294;28;20616;-46
2024/01/17 04:29:00;;;;;;;12.53;6.67;;;-5.00;99.90;;;;;;5055783;28;20428;-47
2024/01/17 04:31:32;;;;;;;10.00;5.87;;;-4.90;99.90;;;;;;5054697;28;20179;-47
2024/01/17 04:34:01;;;;;;;15.83;6.83;;;-4.90;99.90;;;;;;5055513;28;20440;-48
2024/01/17 04:36:28;;;;;;;13.23;6.90;;;-4.90;99.90;;;;;;5055006;28;20458;-47
2024/01/17 04:38:57;;;;;;;14.67;6.33;;;-4.90;99.90;;;;;;5054461;28;20425;-47
2024/01/17 04:41:23;;;;;;;13.90;6.50;;;-5.00;99.90;;;;;;5055875;28;20421;-47
2024/01/17 04:43:48;;;;;;;12.00;6.83;;;-5.00;99.90;;;;;;5053940;28;20414;-48
2024/01/17 04:46:15;;;;;;;13.17;7.17;;;-5.00;99.90;;;;;;5055567;28;20213;-47
2024/01/17 04:48:44;;;;;;;13.10;6.97;;;-5.00;99.90;;;;;;5055200;28;20183;-47
2024/01/17 04:51:13;;;;;;;13.43;7.37;;;-5.00;99.90;;;;;;5055142;28;20406;-47
2024/01/17 04:53:41;;;;;;;12.83;6.27;;;-5.00;99.90;;;;;;5055042;28;20420;-48
2024/01/17 04:56:09;;;;;;;10.73;6.17;;;-5.00;99.90;;;;;;5054757;28;20436;-48
2024/01/17 04:58:36;;;;;;;14.23;7.90;;;-5.00;99.90;;;;;;5054559;28;20475;-47
2024/01/17 05:01:39;;;;;;;14.93;6.70;;;-5.00;99.90;;;;;;5054703;28;20436;-47
2024/01/17 05:04:04;;;;;;;15.03;6.33;;;-4.90;99.90;;;;;;5054854;28;20478;-47
2024/01/17 05:06:32;;;;;;;11.80;6.80;;;-4.90;99.90;;;;;;5052457;28;20969;-49
2024/01/17 05:09:03;;;;;;;14.80;7.57;;;-4.90;99.90;;;;;;5054365;28;20261;-48
2024/01/17 05:11:29;;;;;;;12.93;7.90;;;-4.90;99.90;;;;;;5054752;28;20485;-48
2024/01/17 05:13:55;;;;;;;13.67;7.73;;;-4.90;99.90;;;;;;5054444;28;20773;-47
2024/01/17 05:16:24;;;;;;;12.00;7.23;;;-4.80;99.90;;;;;;5054255;28;20442;-48
2024/01/17 05:18:50;;;;;;;13.90;7.17;;;-4.80;99.90;;;;;;5054516;28;20183;-48
2024/01/17 05:21:28;;;;;;;13.90;6.83;;;-4.80;99.90;;;;;;5054603;28;20428;-46
2024/01/17 05:23:56;;;;;;;12.20;7.57;;;-4.80;99.90;;;;;;5054496;28;20242;-48
2024/01/17 05:26:28;;;;;;;15.13;7.40;;;-4.80;99.90;;;;;;5054247;28;20455;-46
2024/01/17 05:29:02;;;;;;;16.10;7.10;;;-4.80;99.90;;;;;;5054449;28;20477;-48
2024/01/17 05:31:29;;;;;;;12.83;6.73;;;-4.80;99.90;;;;;;5054398;28;20419;-48
2024/01/17 05:33:57;;;;;;;15.87;6.93;;;-4.80;99.90;;;;;;5054162;28;20438;-48
2024/01/17 05:36:23;;;;;;;17.77;7.57;;;-4.70;99.90;;;;;;5053868;28;20458;-47
2024/01/17 05:38:50;;;;;;;13.50;6.63;;;-4.70;99.90;;;;;;5052922;28;20919;-48
2024/01/17 05:41:16;;;;;;;13.90;7.03;;;-4.70;99.90;;;;;;5054094;28;20315;-50
2024/01/17 05:43:42;;;;;;;13.73;6.20;;;-4.60;99.90;;;;;;5052624;28;20988;-49
2024/01/17 05:46:08;;;;;;;12.33;7.30;;;-4.60;99.90;;;;;;5053683;28;20674;-49
2024/01/17 05:48:37;;;;;;;15.93;7.13;;;-4.50;99.90;;;;;;5052980;28;20258;-49
2024/01/17 05:51:05;;;;;;;12.90;7.10;;;-4.50;99.90;;;;;;5054366;28;20396;-50
2024/01/17 05:53:37;;;;;;;12.67;7.07;;;-4.50;99.90;;;;;;5054122;28;20409;-46
2024/01/17 05:56:05;;;;;;;11.27;6.73;;;-4.40;99.90;;;;;;5053925;28;20444;-49
2024/01/17 05:58:31;;;;;;;15.60;7.80;;;-4.40;99.90;;;;;;5053739;28;20426;-47
2024/01/17 06:00:58;;;;;;;16.23;8.23;;;-4.40;99.90;;;;;;5053559;28;20450;-48
2024/01/17 06:03:24;;;;;;;14.73;8.50;;;-4.40;99.90;;;;;;5053554;28;20243;-48
2024/01/17 06:05:51;;;;;;;15.97;7.77;;;-4.40;99.90;;;;;;5053810;28;20461;-47
2024/01/17 06:08:32;;;;;;;16.33;8.03;;;-4.40;99.90;;;;;;5053990;28;20809;-47
2024/01/17 06:11:01;;;;;;;18.43;7.70;;;-4.40;99.90;;;;;;5052308;28;20448;-47
2024/01/17 06:13:26;;;;;;;12.27;7.37;;;-4.40;99.90;;;;;;5053789;28;20808;-48
2024/01/17 06:15:52;;;;;;;13.97;6.83;;;-4.40;99.90;;;;;;5053395;28;20469;-47
2024/01/17 06:18:17;;;;;;;13.10;6.67;;;-4.40;99.90;;;;;;5053689;28;20219;-47
2024/01/17 06:20:43;;;;;;;17.03;8.03;;;-4.40;99.90;;;;;;5053804;28;20179;-47
2024/01/17 06:23:09;;;;;;;14.17;7.87;;;-4.40;99.90;;;;;;5053603;28;20665;-46
2024/01/17 06:25:34;;;;;;;19.20;8.63;;;-4.30;99.90;;;;;;5053378;28;20212;-47
2024/01/17 06:28:05;;;;;;;14.90;8.37;;;-4.40;99.90;;;;;;5052083;28;20550;-47
2024/01/17 06:30:33;;;;;;;17.40;8.63;;;-4.30;99.90;;;;;;5053587;28;20232;-47
2024/01/17 06:32:59;;;;;;;16.53;8.50;;;-4.30;99.90;;;;;;5053274;28;20411;-47
2024/01/17 06:35:24;;;;;;;15.50;8.93;;;-4.30;99.90;;;;;;5052007;28;20465;-47
2024/01/17 06:37:50;;;;;;;14.87;7.70;;;-4.20;99.90;;;;;;5053709;28;20313;-46
2024/01/17 06:40:15;;;;;;;16.67;8.27;;;-4.30;99.90;;;;;;5053741;28;20263;-49
2024/01/17 06:42:47;;;;;;;15.33;8.57;;;-4.20;99.90;;;;;;5053252;28;20176;-46
2024/01/17 06:45:12;;;;;;;15.20;9.07;;;-4.20;99.90;;;;;;5053478;28;20198;-48
2024/01/17 06:47:42;;;;;;;15.90;8.97;;;-4.20;99.90;;;;;;5059868;28;20474;-48
2024/01/17 06:51:04;;;;;;;17.77;9.97;;;-4.20;99.90;;;;;;5075684;28;20425;-47
2024/01/17 06:53:34;;;;;;;17.50;8.80;;;-4.10;99.90;;;;;;5053405;28;20409;-48
2024/01/17 06:56:05;;;;;;;13.73;7.97;;;-4.10;99.90;;;;;;5053332;28;20453;-47
2024/01/17 06:58:31;;;;;;;20.83;9.00;;;-4.10;99.90;;;;;;5053328;28;20485;-48
2024/01/17 07:00:57;;;;;;;16.27;8.33;;;-4.10;99.90;;;;;;5053491;28;20450;-47
2024/01/17 07:03:25;;;;;;;15.70;9.43;;;-4.10;99.90;;;;;;5051775;28;20634;-47
2024/01/17 07:05:51;;;;;;;18.43;8.43;;;-4.00;99.90;;;;;;5053070;28;20583;-48
2024/01/17 07:08:17;;;;;;;16.07;8.50;;;-4.00;99.90;;;;;;5052930;28;20420;-47
2024/01/17 07:10:44;;;;;;;17.83;8.93;;;-4.00;99.90;;;;;;5053426;28;20525;-47
2024/01/17 07:13:10;;;;;;;14.67;8.87;;;-4.00;99.90;;;;;;5052895;28;20499;-47
2024/01/17 07:15:36;;;;;;;15.03;9.33;;;-4.00;99.90;;;;;;5053026;28;21022;-49
2024/01/17 07:18:03;;;;;;;17.20;9.83;;;-3.90;99.90;;;;;;5051939;28;20169;-48
2024/01/17 07:20:29;;;;;;;17.60;9.33;;;-4.00;99.90;;;;;;5052779;28;20176;-47
2024/01/17 07:22:55;;;;;;;19.63;9.87;;;-3.90;99.90;;;;;;5053063;28;20425;-47
2024/01/17 07:25:26;;;;;;;17.03;9.40;;;-3.90;99.90;;;;;;5052897;28;20433;-48
2024/01/17 07:27:52;;;;;;;14.53;8.57;;;-3.90;99.90;;;;;;5052962;28;20180;-48
2024/01/17 07:30:19;;;;;;;18.47;9.67;;;-3.90;99.90;;;;;;5055100;28;20426;-48
2024/01/17 07:32:45;;;;;;;16.47;9.97;;;-3.90;99.90;;;;;;5055364;28;20179;-48
2024/01/17 07:35:14;;;;;;;18.53;9.37;;;-3.90;99.90;;;;;;5055280;28;20536;-48
2024/01/17 07:37:42;;;;;;;18.17;9.73;;;-3.90;99.90;;;;;;5057445;28;20170;-48
2024/01/17 07:40:10;;;;;;;24.60;9.43;;;-3.80;99.90;;;;;;5058916;28;20771;-48
2024/01/17 07:42:36;;;;;;;18.27;8.53;;;-3.80;99.90;;;;;;5055505;28;20426;-48
2024/01/17 07:45:04;;;;;;;18.73;9.50;;;-3.80;99.90;;;;;;5055137;28;20936;-47
2024/01/17 07:47:29;;;;;;;19.73;9.63;;;-3.70;99.90;;;;;;5055925;28;20680;-48
2024/01/17 07:49:59;;;;;;;19.23;10.20;;;-3.70;99.90;;;;;;5056326;28;20421;-48
2024/01/17 07:52:24;;;;;;;17.20;9.47;;;-3.70;99.90;;;;;;5056216;28;20604;-46
2024/01/17 07:54:50;;;;;;;15.37;8.90;;;-3.70;99.90;;;;;;5055923;28;20509;-47
2024/01/17 07:57:15;;;;;;;19.83;9.80;;;-3.70;99.90;;;;;;5056369;28;20180;-47
2024/01/17 08:00:34;;;;;;;17.70;9.47;;;-3.60;99.90;;;;;;5054702;28;20278;-48
2024/01/17 08:03:12;;;;;;;18.67;10.13;;;-3.60;99.90;;;;;;5055848;28;20214;-49
2024/01/17 08:05:41;;;;;;;15.97;9.57;;;-3.50;99.90;;;;;;5055613;28;20438;-47
2024/01/17 08:08:11;;;;;;;16.93;9.63;;;-3.50;99.90;;;;;;5056092;28;20413;-48
2024/01/17 08:10:38;;;;;;;15.40;9.40;;;-3.50;99.90;;;;;;5055260;28;20453;-47
2024/01/17 08:13:05;;;;;;;19.47;9.97;;;-3.50;99.90;;;;;;5055900;28;20410;-47
2024/01/17 08:15:32;;;;;;;20.57;9.90;;;-3.50;99.90;;;;;;5053553;28;20440;-47
2024/01/17 08:17:57;;;;;;;20.63;10.20;;;-3.40;99.90;;;;;;5055534;28;20495;-47
2024/01/17 08:20:24;;;;;;;16.47;9.43;;;-3.40;99.90;;;;;;5056010;28;20875;-47
2024/01/17 08:22:52;;;;;;;19.57;9.50;;;-3.30;99.90;;;;;;5055944;28;20624;-47
2024/01/17 08:25:26;;;;;;;20.17;9.30;;;-3.30;99.90;;;;;;5055358;28;20439;-48
2024/01/17 08:27:54;;;;;;;19.77;9.43;;;-3.30;99.90;;;;;;5054258;28;20430;-47
2024/01/17 08:30:20;;;;;;;23.80;9.60;;;-3.20;99.90;;;;;;5055606;28;20461;-48
2024/01/17 08:32:51;;;;;;;20.47;8.83;;;-3.20;99.90;;;;;;5054270;28;20439;-48
2024/01/17 08:35:16;;;;;;;15.70;9.20;;;-3.10;99.90;;;;;;5055043;28;20462;-47
2024/01/17 08:37:42;;;;;;;16.80;9.07;;;-3.10;99.90;;;;;;5055136;28;20433;-48
2024/01/17 08:40:08;;;;;;;16.10;7.67;;;-3.10;99.90;;;;;;5055597;28;20186;-47
2024/01/17 08:42:33;;;;;;;17.40;9.10;;;-3.00;99.90;;;;;;5054413;28;20179;-47
2024/01/17 08:45:02;;;;;;;17.33;8.10;;;-3.00;99.90;;;;;;5053758;28;20209;-47
2024/01/17 08:47:30;;;;;;;8.93;4.83;;;-3.00;99.90;;;;;;5055182;28;20300;-47
2024/01/17 08:50:00;;;;;;;18.27;8.47;;;-2.90;99.90;;;;;;5055198;28;20977;-48
2024/01/17 08:52:26;;;;;;;15.37;8.03;;;-2.90;99.90;;;;;;5055045;28;20429;-47
2024/01/17 08:54:57;;;;;;;14.63;8.07;;;-2.80;99.90;;;;;;5053602;28;20430;-48
2024/01/17 08:57:23;;;;;;;18.40;8.93;;;-2.80;99.90;;;;;;5054747;28;20914;-48
2024/01/17 08:59:48;;;;;;;10.40;6.33;;;-2.70;99.90;;;;;;5053946;28;20506;-47
2024/01/17 09:02:14;;;;;;;15.43;8.80;;;-2.70;99.90;;;;;;5055004;28;20184;-48
2024/01/17 09:04:41;;;;;;;19.97;9.03;;;-2.70;99.90;;;;;;5053584;28;20537;-48
2024/01/17 09:07:08;;;;;;;17.83;9.83;;;-2.60;99.90;;;;;;5054373;28;20204;-48
2024/01/17 09:09:33;;;;;;;17.70;8.87;;;-2.60;99.90;;;;;;5054535;28;20494;-47
2024/01/17 09:11:59;;;;;;;18.37;9.70;;;-2.50;99.90;;;;;;5053309;28;20836;-46
2024/01/17 09:14:26;;;;;;;15.60;8.43;;;-2.50;99.90;;;;;;5054497;28;20173;-50
2024/01/17 09:16:53;;;;;;;14.87;8.37;;;-2.40;99.90;;;;;;5054213;28;20212;-48
2024/01/17 09:19:22;;;;;;;20.73;10.10;;;-2.40;99.90;;;;;;5054385;28;20431;-48
2024/01/17 09:21:51;;;;;;;18.10;9.00;;;-2.40;99.90;;;;;;5053892;28;20430;-48
2024/01/17 09:24:17;;;;;;;19.10;8.97;;;-2.40;99.90;;;;;;5053469;28;20812;-48
2024/01/17 09:26:43;;;;;;;19.03;9.47;;;-2.30;99.90;;;;;;5054354;28;20466;-48
2024/01/17 09:29:12;;;;;;;20.63;9.63;;;-2.30;99.90;;;;;;5054746;28;20181;-48
2024/01/17 09:31:38;;;;;;;17.67;8.73;;;-2.20;99.90;;;;;;5054573;28;20415;-48
2024/01/17 09:34:04;;;;;;;17.20;9.70;;;-2.20;99.90;;;;;;5054343;28;20485;-48
2024/01/17 09:36:30;;;;;;;19.83;10.10;;;-2.20;99.90;;;;;;5070574;28;20262;-48
2024/01/17 09:38:56;;;;;;;20.23;9.43;;;-2.10;99.90;;;;;;5071237;28;20419;-49
2024/01/17 09:41:24;;;;;;;20.23;9.27;;;-2.10;99.90;;;;;;5053589;28;20191;-48
2024/01/17 09:43:56;;;;;;;17.07;9.93;;;-2.10;99.90;;;;;;5054248;28;20661;-48
2024/01/17 09:46:22;;;;;;;17.23;9.30;;;-2.00;99.90;;;;;;5053449;28;20462;-48
2024/01/17 09:48:48;;;;;;;16.17;9.03;;;-2.00;99.90;;;;;;5053779;28;20411;-48
2024/01/17 09:51:23;;;;;;;15.00;7.93;;;-1.90;99.90;;;;;;5052646;28;20502;-48
2024/01/17 09:53:53;;;;;;;14.83;8.80;;;-1.90;99.90;;;;;;5053572;28;20171;-48
2024/01/17 09:56:24;;;;;;;18.37;10.90;;;-1.90;99.90;;;;;;5052115;28;20450;-48
2024/01/17 09:58:51;;;;;;;19.10;10.23;;;-1.80;99.90;;;;;;5053906;28;20425;-48
2024/01/17 10:01:20;;;;;;;17.80;8.63;;;-1.80;99.90;;;;;;5052452;28;20431;-48
2024/01/17 10:03:46;;;;;;;20.37;10.23;;;-1.70;99.90;;;;;;5052656;28;20434;-49
2024/01/17 10:06:15;;;;;;;16.50;9.77;;;-1.70;99.90;;;;;;5053697;28;20512;-49
2024/01/17 10:08:47;;;;;;;18.53;9.43;;;-1.70;99.90;;;;;;5054081;28;20444;-49
2024/01/17 10:11:16;;;;;;;10.87;6.43;;;-1.60;99.90;;;;;;5053373;28;20910;-49
2024/01/17 10:13:42;;;;;;;18.73;8.93;;;-1.60;99.90;;;;;;5052812;28;20509;-48
2024/01/17 10:16:11;;;;;;;19.30;8.97;;;-1.50;99.90;;;;;;5052464;28;20204;-48
2024/01/17 10:18:37;;;;;;;19.03;8.93;;;-1.50;99.90;;;;;;5053757;28;20191;-49
2024/01/17 10:21:05;;;;;;;17.00;9.33;;;-1.50;99.90;;;;;;5053855;28;20926;-49
2024/01/17 10:23:31;;;;;;;17.40;8.80;;;-1.40;99.90;;;;;;5053322;28;20183;-49
2024/01/17 10:26:01;;;;;;;19.70;10.37;;;-1.40;99.90;;;;;;5053508;28;20494;-49
2024/01/17 10:28:31;;;;;;;14.53;8.63;;;-1.40;99.90;;;;;;5053708;28;20222;-49
2024/01/17 10:30:57;;;;;;;16.00;9.20;;;-1.40;99.90;;;;;;5053811;28;20423;-49
2024/01/17 10:33:27;;;;;;;17.83;9.87;;;-1.30;99.90;;;;;;5052223;28;20507;-48
2024/01/17 10:35:52;;;;;;;18.70;7.30;;;-1.30;99.90;;;;;;5053269;28;20291;-48
2024/01/17 10:38:18;;;;;;;13.63;7.43;;;-1.30;99.90;;;;;;5053236;28;20947;-49
2024/01/17 10:40:44;;;;;;;21.47;9.93;;;-1.20;99.90;;;;;;5054325;28;20184;-49
2024/01/17 10:43:10;;;;;;;16.27;9.07;;;-1.20;99.90;;;;;;5053394;28;20303;-49
2024/01/17 10:45:39;;;;;;;15.43;9.03;;;-1.10;99.90;;;;;;5051392;28;20228;-50
2024/01/17 10:48:06;;;;;;;12.67;6.47;;;-1.10;99.90;;;;;;5053159;28;20406;-48
2024/01/17 10:50:35;;;;;;;19.37;9.80;;;-1.10;99.90;;;;;;5053115;28;20411;-48
2024/01/17 10:53:05;;;;;;;11.27;6.97;;;-1.00;99.90;;;;;;5052993;28;20415;-49
2024/01/17 10:55:38;;;;;;;14.13;8.90;;;-1.00;99.90;;;;;;5053284;28;20523;-48
2024/01/17 10:58:14;;;;;;;19.50;10.03;;;-1.00;99.90;;;;;;5053207;28;20411;-48
2024/01/17 11:00:50;;;;;;;16.03;9.20;;;-0.90;99.90;;;;;;5053270;28;20867;-48
2024/01/17 11:03:19;;;;;;;17.20;8.90;;;-0.90;99.90;;;;;;5035307;28;20434;-48
2024/01/17 11:05:49;;;;;;;23.27;11.97;;;-0.90;99.90;;;;;;5055514;28;20434;-49
2024/01/17 11:08:16;;;;;;;21.87;12.00;;;-0.90;99.90;;;;;;5057170;28;20450;-49
2024/01/17 11:10:44;;;;;;;19.23;10.20;;;-0.90;99.90;;;;;;5057066;28;20414;-50
2024/01/17 11:13:16;;;;;;;25.10;11.43;;;-0.80;99.90;;;;;;5057064;28;20428;-48
2024/01/17 11:15:43;;;;;;;15.43;9.87;;;-0.80;99.90;;;;;;5056774;28;20437;-49
2024/01/17 11:18:12;;;;;;;25.20;10.00;;;-0.70;99.90;;;;;;5056675;28;20458;-49
2024/01/17 11:20:39;;;;;;;24.10;11.47;;;-0.70;99.90;;;;;;5056751;28;20411;-48
2024/01/17 11:23:09;;;;;;;21.47;11.93;;;-0.60;99.90;;;;;;5056690;28;20457;-50
2024/01/17 11:25:41;;;;;;;23.10;12.90;;;-0.60;99.90;;;;;;5039100;28;20537;-50
2024/01/17 11:28:27;;;;;;;23.67;11.70;;;-0.60;99.90;;;;;;5056991;28;20504;-48
2024/01/17 11:31:18;;;;;;;19.77;10.57;;;-0.50;99.90;;;;;;5057444;28;20426;-49
2024/01/17 11:33:48;;;;;;;17.70;9.70;;;-0.50;99.90;;;;;;5056686;28;20753;-48
2024/01/17 11:36:47;;;;;;;19.17;10.33;;;-0.50;99.90;;;;;;5056120;28;20462;-49
2024/01/17 11:39:17;;;;;;;20.93;10.27;;;-0.50;99.90;;;;;;5056237;28;20419;-49
2024/01/17 11:45:06;;;;;;;19.30;10.53;;;-0.50;99.90;;;;;;5056362;28;20379;-49
2024/01/17 11:47:34;;;;;;;19.47;10.50;;;-0.50;99.90;;;;;;5056157;28;20931;-49
2024/01/17 11:50:02;;;;;;;16.27;9.43;;;-0.50;99.90;;;;;;5056990;28;20550;-50
2024/01/17 11:52:35;;;;;;;22.37;12.10;;;-0.50;99.90;;;;;;5056050;28;20468;-48
2024/01/17 11:55:01;;;;;;;23.23;11.10;;;-0.50;99.90;;;;;;5056345;28;20434;-49
2024/01/17 11:57:31;;;;;;;16.73;10.70;;;-0.60;99.90;;;;;;5056238;28;20512;-49
2024/01/17 12:00:11;;;;;;;19.00;10.10;;;-0.50;99.90;;;;;;5055965;28;20176;-48
2024/01/17 12:02:41;;;;;;;19.73;11.00;;;-0.50;99.90;;;;;;5056646;28;20431;-48
2024/01/17 12:05:08;;;;;;;23.43;12.13;;;-0.50;99.90;;;;;;5056164;28;20532;-49
2024/01/17 12:07:41;;;;;;;30.57;15.70;;;-0.50;99.90;;;;;;5056009;28;20525;-48
2024/01/17 12:10:12;;;;;;;32.00;17.47;;;-0.50;99.90;;;;;;5055828;28;20424;-50
2024/01/17 12:12:43;;;;;;;29.70;17.93;;;-0.50;99.90;;;;;;5055664;28;20427;-47
2024/01/17 12:15:11;;;;;;;29.97;16.47;;;-0.50;99.90;;;;;;5054191;28;20989;-48
2024/01/17 12:17:43;;;;;;;25.10;14.33;;;-0.60;99.90;;;;;;5055829;28;20415;-50
2024/01/17 12:20:09;;;;;;;20.87;11.27;;;-0.60;99.90;;;;;;5056228;28;20427;-49
2024/01/17 12:22:35;;;;;;;23.27;12.10;;;-0.60;99.90;;;;;;5055655;28;20407;-48
2024/01/17 12:25:01;;;;;;;25.40;12.07;;;-0.60;99.90;;;;;;5054686;28;20415;-48
2024/01/17 12:27:30;;;;;;;24.10;13.60;;;-0.60;99.90;;;;;;5054469;28;20477;-49
2024/01/17 12:30:01;;;;;;;25.47;14.00;;;-0.60;99.90;;;;;;5059364;28;20209;-49
2024/01/17 12:32:29;;;;;;;28.37;14.17;;;-0.60;99.90;;;;;;5071863;28;20421;-49
2024/01/17 12:34:57;;;;;;;29.10;13.83;;;-0.60;99.90;;;;;;5062759;28;20419;-49
2024/01/17 12:37:23;;;;;;;32.57;15.07;;;-0.50;99.90;;;;;;5055237;28;20813;-49
2024/01/17 12:39:53;;;;;;;41.43;18.60;;;-0.60;99.90;;;;;;5055392;28;20420;-50
2024/01/17 12:42:19;;;;;;;31.23;15.70;;;-0.60;99.90;;;;;;5055246;28;20185;-49
2024/01/17 12:44:44;;;;;;;28.77;15.00;;;-0.60;99.90;;;;;;5055522;28;20410;-49